64FA weather

Naked Lady Ranch Airport
Stuart, Florida, United States

Public forecast

Using degrees Fahrenheit for public forecast. Weather courtesy of forecast.io.

Closest aviation weather report (METAR) to Naked Lady Ranch Airport

Closest report is Witham Field, 6.7 nm (12.3 km) ENE. Retrieved 2019/10/17 10:50 UTC (55 minutes ago):

KSUA 171050Z COR 30006KT 7SM SCT006 BKN016 25/23 A2991

Closest aviation forecast (TAF) to Naked Lady Ranch Airport

Closest forecast is Witham Field, 6.7 nm (12.3 km) ENE. Retrieved 2019/10/17 06:22 UTC (5 hours ago):

TAF KSUA 170520Z 1706/1806 26006KT P6SM SCT040 BKN250 FM170800 27006KT P6SM SCT035 BKN200 FM171200 32007KT P6SM SCT030 BKN250 FM171900 05008KT P6SM SCT035 BKN100 FM180000 03006KT P6SM VCSH SCT030 BKN200